YM Cultivation — BLHN — position and weather

sailwx.info

Track history (hours):
 
Tides and Currents Weather Stations Pressure Air Temp Water Temp Dewpoint Dewpoint Depression Visibility Wind Speed Wind Dir Waves Ship Positions

YM Cultivation

Last reported at 2018-Feb-17 19:43 UTC. Time now 2018-Feb-22 10:33 UTC.
Position N 40°24' W 073°31'.

Length 224 m; draft 7.8 m.

Type: Cargo ship. MMSI: 416370000.

Date/timePositionNaut miles runAvg speedWind from/ knotsBaromVisibWave heightAir tempDewpointWater temp
2018-Feb-17 19:43N 40°24' W 073°31'2 9.7
2018-Feb-17 19:29N 40°25' W 073°34'5 9.8
2018-Feb-17 19:00N 40°26' W 073°40'5 9.9
2018-Feb-17 18:30N 40°27' W 073°46'4 8.1
2018-Feb-17 18:00N 40°28' W 073°51'5 9.2
2018-Feb-17 17:30N 40°30' W 073°57'714.2
2018-Feb-17 17:00N 40°35' W 074°02'4 8.8
2018-Feb-17 16:30N 40°39' W 074°06'3 5.1
2018-Feb-17 16:00N 40°39' W 074°10'1 2.5
2018-Feb-17 15:29N 40°39' W 074°11'0 0.0
2018-Feb-17 14:59N 40°39' W 074°11'0 0.0
2018-Feb-17 14:29N 40°39' W 074°11'0 0.0
2018-Feb-17 13:59N 40°39' W 074°11'0 0.0
2018-Feb-17 13:29N 40°39' W 074°11'0 0.0
2018-Feb-17 12:59N 40°39' W 074°11'0 0.0
2018-Feb-17 12:29N 40°39' W 074°11'0 0.0
2018-Feb-17 11:59N 40°39' W 074°11'0 0.0
2018-Feb-17 11:29N 40°39' W 074°11'0 0.0
2018-Feb-17 10:59N 40°39' W 074°11'0 0.0
2018-Feb-17 10:29N 40°39' W 074°11'0 0.0
2018-Feb-17 09:59N 40°39' W 074°11'0 0.0
2018-Feb-17 09:29N 40°39' W 074°11'0 0.0
2018-Feb-17 08:59N 40°39' W 074°11'0 0.0
2018-Feb-17 08:29N 40°39' W 074°11'0 0.0
2018-Feb-17 07:59N 40°39' W 074°11'0 0.0
2018-Feb-17 07:29N 40°39' W 074°11'0 0.0
2018-Feb-17 06:59N 40°39' W 074°11'0 0.0
2018-Feb-17 06:29N 40°39' W 074°11'0 0.0
2018-Feb-17 05:59N 40°39' W 074°11'0 0.0
2018-Feb-17 05:29N 40°39' W 074°11'0 0.0
2018-Feb-17 04:59N 40°39' W 074°11'0 0.0
2018-Feb-17 04:29N 40°39' W 074°11'0 0.0
2018-Feb-17 03:59N 40°39' W 074°11'0 0.0
2018-Feb-17 03:29N 40°39' W 074°11'0 0.0
2018-Feb-17 02:59N 40°39' W 074°11'0 0.0
2018-Feb-17 02:29N 40°39' W 074°11'0 0.0
2018-Feb-17 01:59N 40°39' W 074°11'0 0.0
2018-Feb-17 01:29N 40°39' W 074°11'0 0.0
2018-Feb-17 00:56N 40°39' W 074°11'0 0.0
2018-Feb-17 00:29N 40°39' W 074°11'0 0.0
2018-Feb-16 23:50N 40°39' W 074°11'0 0.0
2018-Feb-16 23:29N 40°39' W 074°11'0 0.0
2018-Feb-16 22:59N 40°39' W 074°11'0 0.0
2018-Feb-16 22:29N 40°39' W 074°11'0 0.0
2018-Feb-16 21:59N 40°39' W 074°11'0 0.0
2018-Feb-16 21:29N 40°39' W 074°11'0 0.0
2018-Feb-16 20:59N 40°39' W 074°11'0 0.3
2018-Feb-16 20:30N 40°39' W 074°11'3 5.0
2018-Feb-16 20:00N 40°39' W 074°08'3 6.4
2018-Feb-16 19:30N 40°39' W 074°04'5 9.9
2018-Feb-16 19:00N 40°34' W 074°02'612.4
2018-Feb-16 18:30N 40°30' W 073°56'5 9.5
2018-Feb-16 18:00N 40°28' W 073°50'4 7.7
2018-Feb-16 17:30N 40°24' W 073°47'5 9.1
2018-Feb-16 17:00N 40°20' W 073°46'4 8.4
2018-Feb-16 16:30N 40°16' W 073°45'4 6.9
2018-Feb-16 15:59N 40°12' W 073°45'3114.4
2018-Feb-16 13:52N 39°42' W 073°43'718.5
2018-Feb-16 13:29N 39°36' W 073°48'7310.0
2018-Feb-16 06:12N 38°55' W 075°06'419.1
2018-Feb-16 06:00N 38°59' W 075°08'918.6
2018-Feb-16 05:30N 39°07' W 075°13'815.3
2018-Feb-16 05:01N 39°14' W 075°18'917.6
2018-Feb-16 04:31N 39°20' W 075°25'816.1
2018-Feb-16 04:00N 39°26' W 075°32'713.6
2018-Feb-16 03:31N 39°33' W 075°32'611.4
2018-Feb-16 03:01N 39°39' W 075°33'713.3
2018-Feb-16 02:31N 39°45' W 075°30'5 9.9
2018-Feb-16 02:01N 39°48' W 075°25'4 8.6
2018-Feb-16 01:31N 39°51' W 075°21'5 9.5
2018-Feb-16 00:59N 39°52' W 075°14'5 2.8
2018-Feb-15 23:04N 39°54' W 075°08'0 0.1
2018-Feb-15 22:58N 39°54' W 075°08'0 0.0
2018-Feb-15 22:28N 39°54' W 075°08'0 0.0
2018-Feb-15 21:58N 39°54' W 075°08'0 0.0
2018-Feb-15 21:28N 39°54' W 075°08'0 0.0
2018-Feb-15 20:58N 39°54' W 075°08'0 0.0
2018-Feb-15 20:28N 39°54' W 075°08'0 0.0
2018-Feb-15 19:58N 39°54' W 075°08'0 0.0
2018-Feb-15 19:28N 39°54' W 075°08'0 0.0
2018-Feb-15 18:58N 39°54' W 075°08'0 0.0
2018-Feb-15 18:28N 39°54' W 075°08'0 0.0
2018-Feb-15 17:58N 39°54' W 075°08'0 0.0
2018-Feb-15 17:28N 39°54' W 075°08'0 0.0
2018-Feb-15 16:58N 39°54' W 075°08'0 0.5
2018-Feb-15 16:30N 39°54' W 075°08'2 4.2
2018-Feb-15 16:00N 39°53' W 075°10'4 8.0
2018-Feb-15 15:30N 39°51' W 075°15'4 7.6
2018-Feb-15 15:00N 39°51' W 075°20'4 8.2
2018-Feb-15 14:31N 39°49' W 075°24'5 9.3
2018-Feb-15 14:00N 39°45' W 075°29'510.0
2018-Feb-15 13:30N 39°41' W 075°31'510.3
2018-Feb-15 13:00N 39°36' W 075°34'611.8
2018-Feb-15 12:30N 39°30' W 075°33'611.3
2018-Feb-15 12:01N 39°25' W 075°31'612.0
2018-Feb-15 11:30N 39°20' W 075°26'612.2
2018-Feb-15 11:01N 39°16' W 075°20'612.8
2018-Feb-15 10:30N 39°11' W 075°16'612.8
2018-Feb-15 10:00N 39°05' W 075°11'714.8
2018-Feb-15 09:30N 38°58' W 075°08'815.2
2018-Feb-15 09:00N 38°51' W 075°04'5 9.6
2018-Feb-15 08:30N 38°47' W 075°02'5 9.2
2018-Feb-15 08:00N 38°44' W 074°57'4 8.5
2018-Feb-15 07:30N 38°41' W 074°53'5 7.5
2018-Feb-15 06:52N 38°37' W 074°49'3 9.0
2018-Feb-15 06:29N 38°35' W 074°46'15 1.7
2018-Feb-14 21:48N 38°21' W 074°40'6 1.4
2018-Feb-14 17:24N 38°26' W 074°36'0 0.5
2018-Feb-14 16:48N 38°26' W 074°36'0 0.4
2018-Feb-14 16:29N 38°26' W 074°36'0 0.2
2018-Feb-14 15:59N 38°26' W 074°36'0 0.1
2018-Feb-14 15:30N 38°25' W 074°36'0 0.1
2018-Feb-14 14:58N 38°25' W 074°36'0 0.0
2018-Feb-14 14:30N 38°25' W 074°36'6 1.8
2018-Feb-14 10:55N 38°22' W 074°43'0 0.7
2018-Feb-14 10:27N 38°22' W 074°42'0 0.7
2018-Feb-14 09:58N 38°22' W 074°42'1 0.7
2018-Feb-14 08:30N 38°23' W 074°41'1 0.7
2018-Feb-14 06:26N 38°23' W 074°39'0 0.7
2018-Feb-14 05:54N 38°23' W 074°39'0 0.7
2018-Feb-14 05:27N 38°24' W 074°38'0 0.7
2018-Feb-14 05:00N 38°24' W 074°38'0 0.7
2018-Feb-14 04:25N 38°24' W 074°37'0 0.6
2018-Feb-14 03:49N 38°24' W 074°37'0 0.6
2018-Feb-14 03:09N 38°24' W 074°37'0 0.7
2018-Feb-14 03:00N 38°24' W 074°36'0 0.8
2018-Feb-14 02:30N 38°24' W 074°36'0 0.8
2018-Feb-14 01:53N 38°25' W 074°35'0 0.7
2018-Feb-14 01:30N 38°24' W 074°35'4 5.1
2018-Feb-14 00:43N 38°21' W 074°37'2 5.9
2018-Feb-14 00:25N 38°19' W 074°38'96 9.2
2018-Feb-13 14:01N 36°55' W 075°37'0 8.9
2018-Feb-13 14:00N 36°55' W 075°37'6 9.2
2018-Feb-13 13:20N 36°51' W 075°42'3 9.0
2018-Feb-13 13:00N 36°49' W 075°45'6 8.4
2018-Feb-13 12:19N 36°51' W 075°51'5 9.0
2018-Feb-13 11:48N 36°55' W 075°55'3 8.7
2018-Feb-13 11:30N 36°56' W 075°58'4 8.5
2018-Feb-13 11:00N 36°57' W 076°03'815.0
2018-Feb-13 10:29N 36°60' W 076°12'612.9
2018-Feb-13 09:59N 36°58' W 076°20'3 6.8
2018-Feb-13 09:30N 36°55' W 076°20'0 0.2
2018-Feb-13 09:01N 36°55' W 076°20'0 0.0
2018-Feb-13 08:31N 36°55' W 076°20'0 0.0
2018-Feb-13 08:01N 36°55' W 076°20'0 0.0
2018-Feb-13 07:31N 36°55' W 076°20'0 0.0
2018-Feb-13 07:01N 36°55' W 076°20'0 0.0
2018-Feb-13 06:30N 36°55' W 076°20'0 0.0
2018-Feb-13 06:00N 36°55' W 076°20'0 0.0
2018-Feb-13 05:31N 36°55' W 076°20'0 0.0
2018-Feb-13 05:01N 36°55' W 076°20'0 0.0
2018-Feb-13 04:31N 36°55' W 076°20'0 0.0
2018-Feb-13 04:01N 36°55' W 076°20'0 0.0
2018-Feb-13 03:31N 36°55' W 076°20'0 0.0
2018-Feb-13 03:01N 36°55' W 076°20'0 0.0
2018-Feb-13 02:31N 36°55' W 076°20'0 0.0
2018-Feb-13 02:01N 36°55' W 076°20'0 0.0
2018-Feb-13 01:31N 36°55' W 076°20'0 0.0
2018-Feb-13 01:01N 36°55' W 076°20'0 0.0
2018-Feb-13 00:31N 36°55' W 076°20'0 0.0
2018-Feb-13 00:01N 36°55' W 076°20'0 0.0
2018-Feb-12 23:31N 36°55' W 076°20'0 0.0
2018-Feb-12 23:01N 36°55' W 076°20'0 0.0
2018-Feb-12 22:31N 36°55' W 076°20'0 0.0
2018-Feb-12 22:00N 36°55' W 076°20'0 0.0
2018-Feb-12 21:30N 36°55' W 076°20'0 0.0
2018-Feb-12 21:00N 36°55' W 076°20'0 0.0
2018-Feb-12 20:30N 36°55' W 076°20'0 0.0
2018-Feb-12 20:00N 36°55' W 076°20'0 0.0
2018-Feb-12 19:30N 36°55' W 076°20'0 0.0
2018-Feb-12 19:00N 36°55' W 076°20'0 0.0
2018-Feb-12 18:30N 36°55' W 076°20'0 0.0
2018-Feb-12 17:57N 36°55' W 076°20'0 0.0
2018-Feb-12 17:27N 36°55' W 076°20'0 0.0
2018-Feb-12 17:00N 36°55' W 076°20'0 0.0
2018-Feb-12 16:30N 36°55' W 076°20'0 0.0
2018-Feb-12 16:00N 36°55' W 076°20'0 0.0
2018-Feb-12 15:30N 36°55' W 076°20'0 0.0
2018-Feb-12 15:00N 36°55' W 076°20'0 0.0
2018-Feb-12 14:30N 36°55' W 076°20'0 0.0
2018-Feb-12 14:00N 36°55' W 076°20'0 0.0
2018-Feb-12 13:30N 36°55' W 076°20'0 0.0
2018-Feb-12 13:00N 36°55' W 076°20'0 0.0
2018-Feb-12 12:30N 36°55' W 076°20'0 0.0
2018-Feb-12 12:00N 36°55' W 076°20'0 0.0
2018-Feb-12 11:30N 36°55' W 076°20'0 0.0
2018-Feb-12 11:00N 36°55' W 076°20'0 0.0
2018-Feb-12 10:29N 36°55' W 076°20'0 0.0
2018-Feb-12 09:59N 36°55' W 076°20'0 0.0
2018-Feb-12 09:29N 36°55' W 076°20'0 0.0
2018-Feb-12 08:59N 36°55' W 076°20'0 0.0
2018-Feb-12 08:26N 36°55' W 076°20'0 0.0
2018-Feb-12 07:56N 36°55' W 076°20'0 0.0
2018-Feb-12 07:29N 36°55' W 076°20'0 0.0
2018-Feb-12 06:59N 36°55' W 076°20'0 0.0
2018-Feb-12 06:26N 36°55' W 076°20'0 0.0
2018-Feb-12 05:56N 36°55' W 076°20'0 0.0
2018-Feb-12 05:26N 36°55' W 076°20'0 0.0
2018-Feb-12 04:56N 36°55' W 076°20'0 0.0
2018-Feb-12 04:29N 36°55' W 076°20'0 0.0
2018-Feb-12 03:59N 36°55' W 076°20'0 0.0
2018-Feb-12 03:26N 36°55' W 076°20'0 0.0
2018-Feb-12 02:59N 36°55' W 076°20'0 0.1
2018-Feb-12 02:26N 36°55' W 076°20'0 0.0
2018-Feb-12 01:59N 36°55' W 076°20'0 0.0
2018-Feb-12 01:29N 36°55' W 076°20'0 0.0
2018-Feb-12 00:59N 36°55' W 076°20'0 0.0
2018-Feb-12 00:29N 36°55' W 076°20'0 0.0
2018-Feb-11 23:58N 36°55' W 076°20'0 0.0
2018-Feb-11 23:28N 36°55' W 076°20'0 0.0
2018-Feb-11 22:55N 36°55' W 076°20'0 0.0
2018-Feb-11 22:28N 36°55' W 076°20'0 0.0
2018-Feb-11 21:58N 36°55' W 076°20'0 0.0
2018-Feb-11 21:28N 36°55' W 076°20'0 0.0
2018-Feb-11 20:58N 36°55' W 076°20'0 0.0
2018-Feb-11 20:25N 36°55' W 076°20'0 0.4
2018-Feb-11 19:59N 36°55' W 076°20'2 4.7
2018-Feb-11 19:30N 36°57' W 076°20'611.3
2018-Feb-11 18:59N 37°00' W 076°14'815.5
2018-Feb-11 18:30N 36°58' W 076°05'612.4
2018-Feb-11 18:00N 36°57' W 075°58'4 8.1
2018-Feb-11 17:30N 36°54' W 075°54'5 9.1
2018-Feb-11 17:00N 36°51' W 075°49'4 7.2
2018-Feb-11 16:30N 36°50' W 075°45'3 6.1
2018-Feb-11 16:00N 36°49' W 075°41'  
Track history (hours):
 
Tides and Currents Weather Stations Pressure Air Temp Water Temp Dewpoint Dewpoint Depression Visibility Wind Speed Wind Dir Waves Ship Positions

YM Cultivation

Last reported at 2018-Feb-17 19:43 UTC. Time now 2018-Feb-22 10:33 UTC.
Position N 40°24' W 073°31'.

Length 224 m; draft 7.8 m.

Type: Cargo ship. MMSI: 416370000.

Date/timePositionNaut miles runAvg speedWind from/ knotsBaromVisibWave heightAir tempDewpointWater temp
2018-Feb-17 19:43N 40°24' W 073°31'2 9.7
2018-Feb-17 19:29N 40°25' W 073°34'5 9.8
2018-Feb-17 19:00N 40°26' W 073°40'5 9.9
2018-Feb-17 18:30N 40°27' W 073°46'4 8.1
2018-Feb-17 18:00N 40°28' W 073°51'5 9.2
2018-Feb-17 17:30N 40°30' W 073°57'714.2
2018-Feb-17 17:00N 40°35' W 074°02'4 8.8
2018-Feb-17 16:30N 40°39' W 074°06'3 5.1
2018-Feb-17 16:00N 40°39' W 074°10'1 2.5
2018-Feb-17 15:29N 40°39' W 074°11'0 0.0
2018-Feb-17 14:59N 40°39' W 074°11'0 0.0
2018-Feb-17 14:29N 40°39' W 074°11'0 0.0
2018-Feb-17 13:59N 40°39' W 074°11'0 0.0
2018-Feb-17 13:29N 40°39' W 074°11'0 0.0
2018-Feb-17 12:59N 40°39' W 074°11'0 0.0
2018-Feb-17 12:29N 40°39' W 074°11'0 0.0
2018-Feb-17 11:59N 40°39' W 074°11'0 0.0
2018-Feb-17 11:29N 40°39' W 074°11'0 0.0
2018-Feb-17 10:59N 40°39' W 074°11'0 0.0
2018-Feb-17 10:29N 40°39' W 074°11'0 0.0
2018-Feb-17 09:59N 40°39' W 074°11'0 0.0
2018-Feb-17 09:29N 40°39' W 074°11'0 0.0
2018-Feb-17 08:59N 40°39' W 074°11'0 0.0
2018-Feb-17 08:29N 40°39' W 074°11'0 0.0
2018-Feb-17 07:59N 40°39' W 074°11'0 0.0
2018-Feb-17 07:29N 40°39' W 074°11'0 0.0
2018-Feb-17 06:59N 40°39' W 074°11'0 0.0
2018-Feb-17 06:29N 40°39' W 074°11'0 0.0
2018-Feb-17 05:59N 40°39' W 074°11'0 0.0
2018-Feb-17 05:29N 40°39' W 074°11'0 0.0
2018-Feb-17 04:59N 40°39' W 074°11'0 0.0
2018-Feb-17 04:29N 40°39' W 074°11'0 0.0
2018-Feb-17 03:59N 40°39' W 074°11'0 0.0
2018-Feb-17 03:29N 40°39' W 074°11'0 0.0
2018-Feb-17 02:59N 40°39' W 074°11'0 0.0
2018-Feb-17 02:29N 40°39' W 074°11'0 0.0
2018-Feb-17 01:59N 40°39' W 074°11'0 0.0
2018-Feb-17 01:29N 40°39' W 074°11'0 0.0
2018-Feb-17 00:56N 40°39' W 074°11'0 0.0
2018-Feb-17 00:29N 40°39' W 074°11'0 0.0
2018-Feb-16 23:50N 40°39' W 074°11'0 0.0
2018-Feb-16 23:29N 40°39' W 074°11'0 0.0
2018-Feb-16 22:59N 40°39' W 074°11'0 0.0
2018-Feb-16 22:29N 40°39' W 074°11'0 0.0
2018-Feb-16 21:59N 40°39' W 074°11'0 0.0
2018-Feb-16 21:29N 40°39' W 074°11'0 0.0
2018-Feb-16 20:59N 40°39' W 074°11'0 0.3
2018-Feb-16 20:30N 40°39' W 074°11'3 5.0
2018-Feb-16 20:00N 40°39' W 074°08'3 6.4
2018-Feb-16 19:30N 40°39' W 074°04'5 9.9
2018-Feb-16 19:00N 40°34' W 074°02'612.4
2018-Feb-16 18:30N 40°30' W 073°56'5 9.5
2018-Feb-16 18:00N 40°28' W 073°50'4 7.7
2018-Feb-16 17:30N 40°24' W 073°47'5 9.1
2018-Feb-16 17:00N 40°20' W 073°46'4 8.4
2018-Feb-16 16:30N 40°16' W 073°45'4 6.9
2018-Feb-16 15:59N 40°12' W 073°45'3114.4
2018-Feb-16 13:52N 39°42' W 073°43'718.5
2018-Feb-16 13:29N 39°36' W 073°48'7310.0
2018-Feb-16 06:12N 38°55' W 075°06'419.1
2018-Feb-16 06:00N 38°59' W 075°08'918.6
2018-Feb-16 05:30N 39°07' W 075°13'815.3
2018-Feb-16 05:01N 39°14' W 075°18'917.6
2018-Feb-16 04:31N 39°20' W 075°25'816.1
2018-Feb-16 04:00N 39°26' W 075°32'713.6
2018-Feb-16 03:31N 39°33' W 075°32'611.4
2018-Feb-16 03:01N 39°39' W 075°33'713.3
2018-Feb-16 02:31N 39°45' W 075°30'5 9.9
2018-Feb-16 02:01N 39°48' W 075°25'4 8.6
2018-Feb-16 01:31N 39°51' W 075°21'5 9.5
2018-Feb-16 00:59N 39°52' W 075°14'5 2.8
2018-Feb-15 23:04N 39°54' W 075°08'0 0.1
2018-Feb-15 22:58N 39°54' W 075°08'0 0.0
2018-Feb-15 22:28N 39°54' W 075°08'0 0.0
2018-Feb-15 21:58N 39°54' W 075°08'0 0.0
2018-Feb-15 21:28N 39°54' W 075°08'0 0.0
2018-Feb-15 20:58N 39°54' W 075°08'0 0.0
2018-Feb-15 20:28N 39°54' W 075°08'0 0.0
2018-Feb-15 19:58N 39°54' W 075°08'0 0.0
2018-Feb-15 19:28N 39°54' W 075°08'0 0.0
2018-Feb-15 18:58N 39°54' W 075°08'0 0.0
2018-Feb-15 18:28N 39°54' W 075°08'0 0.0
2018-Feb-15 17:58N 39°54' W 075°08'0 0.0
2018-Feb-15 17:28N 39°54' W 075°08'0 0.0
2018-Feb-15 16:58N 39°54' W 075°08'0 0.5
2018-Feb-15 16:30N 39°54' W 075°08'2 4.2
2018-Feb-15 16:00N 39°53' W 075°10'4 8.0
2018-Feb-15 15:30N 39°51' W 075°15'4 7.6
2018-Feb-15 15:00N 39°51' W 075°20'4 8.2
2018-Feb-15 14:31N 39°49' W 075°24'5 9.3
2018-Feb-15 14:00N 39°45' W 075°29'510.0
2018-Feb-15 13:30N 39°41' W 075°31'510.3
2018-Feb-15 13:00N 39°36' W 075°34'611.8
2018-Feb-15 12:30N 39°30' W 075°33'611.3
2018-Feb-15 12:01N 39°25' W 075°31'612.0
2018-Feb-15 11:30N 39°20' W 075°26'612.2
2018-Feb-15 11:01N 39°16' W 075°20'612.8
2018-Feb-15 10:30N 39°11' W 075°16'612.8
2018-Feb-15 10:00N 39°05' W 075°11'714.8
2018-Feb-15 09:30N 38°58' W 075°08'815.2
2018-Feb-15 09:00N 38°51' W 075°04'5 9.6
2018-Feb-15 08:30N 38°47' W 075°02'5 9.2
2018-Feb-15 08:00N 38°44' W 074°57'4 8.5
2018-Feb-15 07:30N 38°41' W 074°53'5 7.5
2018-Feb-15 06:52N 38°37' W 074°49'3 9.0
2018-Feb-15 06:29N 38°35' W 074°46'15 1.7
2018-Feb-14 21:48N 38°21' W 074°40'6 1.4
2018-Feb-14 17:24N 38°26' W 074°36'0 0.5
2018-Feb-14 16:48N 38°26' W 074°36'0 0.4
2018-Feb-14 16:29N 38°26' W 074°36'0 0.2
2018-Feb-14 15:59N 38°26' W 074°36'0 0.1
2018-Feb-14 15:30N 38°25' W 074°36'0 0.1
2018-Feb-14 14:58N 38°25' W 074°36'0 0.0
2018-Feb-14 14:30N 38°25' W 074°36'6 1.8
2018-Feb-14 10:55N 38°22' W 074°43'0 0.7
2018-Feb-14 10:27N 38°22' W 074°42'0 0.7
2018-Feb-14 09:58N 38°22' W 074°42'1 0.7
2018-Feb-14 08:30N 38°23' W 074°41'1 0.7
2018-Feb-14 06:26N 38°23' W 074°39'0 0.7
2018-Feb-14 05:54N 38°23' W 074°39'0 0.7
2018-Feb-14 05:27N 38°24' W 074°38'0 0.7
2018-Feb-14 05:00N 38°24' W 074°38'0 0.7
2018-Feb-14 04:25N 38°24' W 074°37'0 0.6
2018-Feb-14 03:49N 38°24' W 074°37'0 0.6
2018-Feb-14 03:09N 38°24' W 074°37'0 0.7
2018-Feb-14 03:00N 38°24' W 074°36'0 0.8
2018-Feb-14 02:30N 38°24' W 074°36'0 0.8
2018-Feb-14 01:53N 38°25' W 074°35'0 0.7
2018-Feb-14 01:30N 38°24' W 074°35'4 5.1
2018-Feb-14 00:43N 38°21' W 074°37'2 5.9
2018-Feb-14 00:25N 38°19' W 074°38'96 9.2
2018-Feb-13 14:01N 36°55' W 075°37'0 8.9
2018-Feb-13 14:00N 36°55' W 075°37'6 9.2
2018-Feb-13 13:20N 36°51' W 075°42'3 9.0
2018-Feb-13 13:00N 36°49' W 075°45'6 8.4
2018-Feb-13 12:19N 36°51' W 075°51'5 9.0
2018-Feb-13 11:48N 36°55' W 075°55'3 8.7
2018-Feb-13 11:30N 36°56' W 075°58'4 8.5
2018-Feb-13 11:00N 36°57' W 076°03'815.0
2018-Feb-13 10:29N 36°60' W 076°12'612.9
2018-Feb-13 09:59N 36°58' W 076°20'3 6.8
2018-Feb-13 09:30N 36°55' W 076°20'0 0.2
2018-Feb-13 09:01N 36°55' W 076°20'0 0.0
2018-Feb-13 08:31N 36°55' W 076°20'0 0.0
2018-Feb-13 08:01N 36°55' W 076°20'0 0.0
2018-Feb-13 07:31N 36°55' W 076°20'0 0.0
2018-Feb-13 07:01N 36°55' W 076°20'0 0.0
2018-Feb-13 06:30N 36°55' W 076°20'0 0.0
2018-Feb-13 06:00N 36°55' W 076°20'0 0.0
2018-Feb-13 05:31N 36°55' W 076°20'0 0.0
2018-Feb-13 05:01N 36°55' W 076°20'0 0.0
2018-Feb-13 04:31N 36°55' W 076°20'0 0.0
2018-Feb-13 04:01N 36°55' W 076°20'0 0.0
2018-Feb-13 03:31N 36°55' W 076°20'0 0.0
2018-Feb-13 03:01N 36°55' W 076°20'0 0.0
2018-Feb-13 02:31N 36°55' W 076°20'0 0.0
2018-Feb-13 02:01N 36°55' W 076°20'0 0.0
2018-Feb-13 01:31N 36°55' W 076°20'0 0.0
2018-Feb-13 01:01N 36°55' W 076°20'0 0.0
2018-Feb-13 00:31N 36°55' W 076°20'0 0.0
2018-Feb-13 00:01N 36°55' W 076°20'0 0.0
2018-Feb-12 23:31N 36°55' W 076°20'0 0.0
2018-Feb-12 23:01N 36°55' W 076°20'0 0.0
2018-Feb-12 22:31N 36°55' W 076°20'0 0.0
2018-Feb-12 22:00N 36°55' W 076°20'0 0.0
2018-Feb-12 21:30N 36°55' W 076°20'0 0.0
2018-Feb-12 21:00N 36°55' W 076°20'0 0.0
2018-Feb-12 20:30N 36°55' W 076°20'0 0.0
2018-Feb-12 20:00N 36°55' W 076°20'0 0.0
2018-Feb-12 19:30N 36°55' W 076°20'0 0.0
2018-Feb-12 19:00N 36°55' W 076°20'0 0.0
2018-Feb-12 18:30N 36°55' W 076°20'0 0.0
2018-Feb-12 17:57N 36°55' W 076°20'0 0.0
2018-Feb-12 17:27N 36°55' W 076°20'0 0.0
2018-Feb-12 17:00N 36°55' W 076°20'0 0.0
2018-Feb-12 16:30N 36°55' W 076°20'0 0.0
2018-Feb-12 16:00N 36°55' W 076°20'0 0.0
2018-Feb-12 15:30N 36°55' W 076°20'0 0.0
2018-Feb-12 15:00N 36°55' W 076°20'0 0.0
2018-Feb-12 14:30N 36°55' W 076°20'0 0.0
2018-Feb-12 14:00N 36°55' W 076°20'0 0.0
2018-Feb-12 13:30N 36°55' W 076°20'0 0.0
2018-Feb-12 13:00N 36°55' W 076°20'0 0.0
2018-Feb-12 12:30N 36°55' W 076°20'0 0.0
2018-Feb-12 12:00N 36°55' W 076°20'0 0.0
2018-Feb-12 11:30N 36°55' W 076°20'0 0.0
2018-Feb-12 11:00N 36°55' W 076°20'0 0.0
2018-Feb-12 10:29N 36°55' W 076°20'0 0.0
2018-Feb-12 09:59N 36°55' W 076°20'0 0.0
2018-Feb-12 09:29N 36°55' W 076°20'0 0.0
2018-Feb-12 08:59N 36°55' W 076°20'0 0.0
2018-Feb-12 08:26N 36°55' W 076°20'0 0.0
2018-Feb-12 07:56N 36°55' W 076°20'0 0.0
2018-Feb-12 07:29N 36°55' W 076°20'0 0.0
2018-Feb-12 06:59N 36°55' W 076°20'0 0.0
2018-Feb-12 06:26N 36°55' W 076°20'0 0.0
2018-Feb-12 05:56N 36°55' W 076°20'0 0.0
2018-Feb-12 05:26N 36°55' W 076°20'0 0.0
2018-Feb-12 04:56N 36°55' W 076°20'0 0.0
2018-Feb-12 04:29N 36°55' W 076°20'0 0.0
2018-Feb-12 03:59N 36°55' W 076°20'0 0.0
2018-Feb-12 03:26N 36°55' W 076°20'0 0.0
2018-Feb-12 02:59N 36°55' W 076°20'0 0.1
2018-Feb-12 02:26N 36°55' W 076°20'0 0.0
2018-Feb-12 01:59N 36°55' W 076°20'0 0.0
2018-Feb-12 01:29N 36°55' W 076°20'0 0.0
2018-Feb-12 00:59N 36°55' W 076°20'0 0.0
2018-Feb-12 00:29N 36°55' W 076°20'0 0.0
2018-Feb-11 23:58N 36°55' W 076°20'0 0.0
2018-Feb-11 23:28N 36°55' W 076°20'0 0.0
2018-Feb-11 22:55N 36°55' W 076°20'0 0.0
2018-Feb-11 22:28N 36°55' W 076°20'0 0.0
2018-Feb-11 21:58N 36°55' W 076°20'0 0.0
2018-Feb-11 21:28N 36°55' W 076°20'0 0.0
2018-Feb-11 20:58N 36°55' W 076°20'0 0.0
2018-Feb-11 20:25N 36°55' W 076°20'0 0.4
2018-Feb-11 19:59N 36°55' W 076°20'2 4.7
2018-Feb-11 19:30N 36°57' W 076°20'611.3
2018-Feb-11 18:59N 37°00' W 076°14'815.5
2018-Feb-11 18:30N 36°58' W 076°05'612.4
2018-Feb-11 18:00N 36°57' W 075°58'4 8.1
2018-Feb-11 17:30N 36°54' W 075°54'5 9.1
2018-Feb-11 17:00N 36°51' W 075°49'4 7.2
2018-Feb-11 16:30N 36°50' W 075°45'3 6.1
2018-Feb-11 16:00N 36°49' W 075°41'  

Dump ship's entire track history